Time;durP1;ratioP1;P1;durP2;ratioP2;P2;SDS_P1;SDS_P2;PMS_P1;PMS_P2;Temp;Humidity;BMP_temperature;BMP_pressure;BME280_temperature;BME280_humidity;BME280_pressure;Samples;Min_cycle;Max_cycle;Signal;HPM_P1;HPM_P2
2021/03/31 06:01:37;;;;;;;;;;;;;;;;;;5597780;23;1556;-65
2021/03/31 06:04:02;;;;;;;;;;;;;;;;;;4945392;29;900;-69
2021/03/31 06:06:29;;;;;;;;;;;;;;;;;;4936136;29;846;-69
2021/03/31 06:08:55;;;;;;;;;;;;;;;;;;4937147;29;1910;-68
2021/03/31 06:11:21;;;;;;;;;;;;;;;;;;4937337;29;1414;-69
2021/03/31 06:13:55;;;;;;;;;;;;;;;;;;4936032;29;1305;-68
2021/03/31 06:16:32;;;;;;;;;;;;;;;;;;4936085;29;1230;-68
2021/03/31 06:19:14;;;;;;;;;;;;;;;;;;4935944;29;1242;-68
2021/03/31 06:21:40;;;;;;;;;;;;;;;;;;4937241;29;1319;-68
2021/03/31 06:24:21;;;;;;;;;;;;;;;;;;4935416;29;1568;-66
2021/03/31 06:26:47;;;;;;;;;;;;;;;;;;4936014;29;1307;-66
2021/03/31 06:29:13;;;;;;;;;;;;;;;;;;4935795;29;1894;-67
2021/03/31 06:31:38;;;;;;;;;;;;;;;;;;4935785;29;1373;-67
2021/03/31 06:34:04;;;;;;;;;;;;;;;;;;4937109;29;1251;-66
2021/03/31 06:36:40;;;;;;;;;;;;;;;;;;4936906;29;818;-66
2021/03/31 06:39:22;;;;;;;;;;;;;;;;;;4920079;29;858;-66
2021/03/31 06:47:30;;;;;;;;;;;;;;;;;;4937216;29;857;-67
2021/03/31 06:49:53;;;;;;;;;;;;;;;;;;4939027;29;1918;-67
2021/03/31 06:52:19;;;;;;;;;;;;;;;;;;4939236;29;1441;-67
2021/03/31 06:54:45;;;;;;;;;;;;;;;;;;4938968;29;857;-67
2021/03/31 06:57:14;;;;;;;;;;;;;;;;;;4940250;29;833;-67
2021/03/31 06:59:40;;;;;;;;;;;;;;;;;;4940283;29;877;-66
2021/03/31 07:02:05;;;;;;;;;;;;;;;;;;4939942;29;1319;-67
2021/03/31 07:04:31;;;;;;;;;;;;;;;;;;4939977;29;838;-66
2021/03/31 07:07:02;;;;;;;;;;;;;;;;;;4940520;29;743;-66
2021/03/31 07:09:27;;;;;;;;;;;;;;;;;;4938828;29;1910;-67
2021/03/31 07:11:53;;;;;;;;;;;;;;;;;;4938637;29;1546;-67
2021/03/31 07:14:19;;;;;;;;;;;;;;;;;;4940017;29;818;-67
2021/03/31 07:16:45;;;;;;;;;;;;;;;;;;4938875;29;1253;-66
2021/03/31 07:19:11;;;;;;;;;;;;;;;;;;4938760;29;1691;-68
2021/03/31 07:21:37;;;;;;;;;;;;;;;;;;4939568;29;1382;-67
2021/03/31 07:24:02;;;;;;;;;;;;;;;;;;4938370;29;1178;-68
2021/03/31 07:26:28;;;;;;;;;;;;;;;;;;4938570;29;1233;-67
2021/03/31 07:28:54;;;;;;;;;;;;;;;;;;4939650;29;1902;-67
2021/03/31 07:31:26;;;;;;;;;;;;;;;;;;4938495;29;1437;-68
2021/03/31 07:34:03;;;;;;;;;;;;;;;;;;4939566;29;837;-67
2021/03/31 07:36:30;;;;;;;;;;;;;;;;;;4940029;29;891;-67
2021/03/31 07:38:55;;;;;;;;;;;;;;;;;;4938201;29;1386;-67
2021/03/31 07:41:22;;;;;;;;;;;;;;;;;;4938231;29;1355;-67
2021/03/31 07:43:48;;;;;;;;;;;;;;;;;;4939363;29;882;-68
2021/03/31 07:46:15;;;;;;;;;;;;;;;;;;4938497;29;1128;-66
2021/03/31 07:48:41;;;;;;;;;;;;;;;;;;4938075;29;1963;-67
2021/03/31 07:51:21;;;;;;;;;;;;;;;;;;4939034;29;1390;-67
2021/03/31 07:53:48;;;;;;;;;;;;;;;;;;4939179;29;794;-67
2021/03/31 07:56:24;;;;;;;;;;;;;;;;;;4938092;29;1430;-67
2021/03/31 07:59:02;;;;;;;;;;;;;;;;;;4939280;29;845;-67
2021/03/31 08:01:47;;;;;;;;;;;;;;;;;;4937113;29;1413;-68
2021/03/31 08:04:13;;;;;;;;;;;;;;;;;;4938535;29;1213;-67
2021/03/31 08:06:43;;;;;;;;;;;;;;;;;;4937850;29;1327;-67
2021/03/31 08:09:09;;;;;;;;;;;;;;;;;;4939036;29;1894;-67
2021/03/31 08:11:41;;;;;;;;;;;;;;;;;;4937643;29;1634;-65
2021/03/31 08:14:07;;;;;;;;;;;;;;;;;;4938591;29;860;-65
2021/03/31 08:16:34;;;;;;;;;;;;;;;;;;4937643;29;1324;-65
2021/03/31 08:19:01;;;;;;;;;;;;;;;;;;4937881;29;1206;-65
2021/03/31 08:21:27;;;;;;;;;;;;;;;;;;4938775;29;1370;-65
2021/03/31 08:23:54;;;;;;;;;;;;;;;;;;4937007;29;1229;-65
2021/03/31 08:26:35;;;;;;;;;;;;;;;;;;4938774;29;896;-65
2021/03/31 08:29:20;;;;;;;;;;;;;;;;;;4938619;29;1930;-65
2021/03/31 08:31:45;;;;;;;;;;;;;;;;;;4935896;29;1386;-67
2021/03/31 08:34:11;;;;;;;;;;;;;;;;;;4938528;29;897;-68
2021/03/31 08:36:37;;;;;;;;;;;;;;;;;;4937433;29;917;-67
2021/03/31 08:39:04;;;;;;;;;;;;;;;;;;4938752;29;854;-67
2021/03/31 08:41:30;;;;;;;;;;;;;;;;;;4937178;29;1354;-67
2021/03/31 08:44:10;;;;;;;;;;;;;;;;;;4938459;29;889;-67
2021/03/31 08:46:35;;;;;;;;;;;;;;;;;;4938537;29;873;-67
2021/03/31 08:49:01;;;;;;;;;;;;;;;;;;4938259;29;1899;-67
2021/03/31 08:51:26;;;;;;;;;;;;;;;;;;4936721;29;1380;-67
2021/03/31 08:53:51;;;;;;;;;;;;;;;;;;4936747;29;1534;-67
2021/03/31 08:56:17;;;;;;;;;;;;;;;;;;4938280;29;865;-67
2021/03/31 08:58:42;;;;;;;;;;;;;;;;;;4938200;29;865;-65
2021/03/31 09:01:07;;;;;;;;;;;;;;;;;;4937025;29;1362;-67
2021/03/31 09:03:32;;;;;;;;;;;;;;;;;;4936646;29;1225;-65
2021/03/31 09:05:59;;;;;;;;;;;;;;;;;;4937696;29;907;-65
2021/03/31 09:08:26;;;;;;;;;;;;;;;;;;4938119;29;1096;-66
2021/03/31 09:10:55;;;;;;;;;;;;;;;;;;4937994;29;1911;-66
2021/03/31 09:13:41;;;;;;;;;;;;;;;;;;4937872;29;873;-64
2021/03/31 09:16:15;;;;;;;;;;;;;;;;;;4937638;29;915;-67
2021/03/31 09:18:43;;;;;;;;;;;;;;;;;;4937844;29;913;-67
2021/03/31 09:21:10;;;;;;;;;;;;;;;;;;4937779;29;1299;-64
2021/03/31 09:23:37;;;;;;;;;;;;;;;;;;4937726;29;834;-64
2021/03/31 09:26:04;;;;;;;;;;;;;;;;;;4937632;29;889;-65
2021/03/31 09:28:30;;;;;;;;;;;;;;;;;;4935801;29;1401;-65
2021/03/31 09:31:06;;;;;;;;;;;;;;;;;;4936893;29;1936;-65
2021/03/31 09:33:33;;;;;;;;;;;;;;;;;;4937221;29;911;-64
2021/03/31 09:36:15;;;;;;;;;;;;;;;;;;4935393;29;1715;-64
2021/03/31 09:38:40;;;;;;;;;;;;;;;;;;4936320;29;1440;-65
2021/03/31 09:41:07;;;;;;;;;;;;;;;;;;4937207;29;1394;-66
2021/03/31 09:43:33;;;;;;;;;;;;;;;;;;4937271;29;1638;-65
2021/03/31 09:45:58;;;;;;;;;;;;;;;;;;4937448;29;858;-65
2021/03/31 09:48:24;;;;;;;;;;;;;;;;;;4937610;29;850;-65
2021/03/31 09:50:50;;;;;;;;;;;;;;;;;;4935715;29;1978;-65
2021/03/31 09:53:15;;;;;;;;;;;;;;;;;;4937070;29;992;-64
2021/03/31 09:55:41;;;;;;;;;;;;;;;;;;4936027;29;1773;-65
2021/03/31 09:58:06;;;;;;;;;;;;;;;;;;4936125;29;1182;-65
2021/03/31 10:00:40;;;;;;;;;;;;;;;;;;4935902;29;802;-65
2021/03/31 10:03:06;;;;;;;;;;;;;;;;;;4937305;29;833;-65
2021/03/31 10:05:31;;;;;;;;;;;;;;;;;;4936028;29;901;-65
2021/03/31 10:08:20;;;;;;;;;;;;;;;;;;4937257;29;877;-65
2021/03/31 10:10:56;;;;;;;;;;;;;;;;;;4936808;29;1907;-65
2021/03/31 10:13:25;;;;;;;;;;;;;;;;;;4937349;29;900;-65
2021/03/31 10:15:58;;;;;;;;;;;;;;;;;;4937236;29;845;-65
2021/03/31 10:18:24;;;;;;;;;;;;;;;;;;4937159;29;912;-65
2021/03/31 10:20:50;;;;;;;;;;;;;;;;;;4937021;29;1358;-65
2021/03/31 10:23:30;;;;;;;;;;;;;;;;;;4935935;29;1308;-65
2021/03/31 10:26:14;;;;;;;;;;;;;;;;;;4941187;29;885;-65
2021/03/31 10:28:39;;;;;;;;;;;;;;;;;;4940994;29;853;-64
2021/03/31 10:31:28;;;;;;;;;;;;;;;;;;4940636;29;1964;-65
2021/03/31 10:33:54;;;;;;;;;;;;;;;;;;4946159;29;2070;-64
2021/03/31 10:47:25;;;;;;;;;;;;;;;;;;4940427;29;1083;-64
2021/03/31 10:49:53;;;;;;;;;;;;;;;;;;4940388;29;1962;-64
2021/03/31 10:52:28;;;;;;;;;;;;;;;;;;4940312;29;1371;-64
2021/03/31 10:54:55;;;;;;;;;;;;;;;;;;4940232;29;1023;-63
2021/03/31 10:57:21;;;;;;;;;;;;;;;;;;4940070;29;834;-64
2021/03/31 10:59:46;;;;;;;;;;;;;;;;;;4939247;29;2482;-63
2021/03/31 11:02:11;;;;;;;;;;;;;;;;;;4940046;29;1291;-64
2021/03/31 11:04:36;;;;;;;;;;;;;;;;;;4939730;29;890;-64
2021/03/31 11:07:02;;;;;;;;;;;;;;;;;;4940121;29;893;-64
2021/03/31 11:09:28;;;;;;;;;;;;;;;;;;4940024;29;1891;-64
2021/03/31 11:11:54;;;;;;;;;;;;;;;;;;4939988;29;1470;-63
2021/03/31 11:14:19;;;;;;;;;;;;;;;;;;4939952;29;901;-64
2021/03/31 11:16:59;;;;;;;;;;;;;;;;;;4939938;29;853;-63
2021/03/31 11:27:17;;;;;;;;;;;;;;;;;;4939741;29;718;-66
2021/03/31 11:29:43;;;;;;;;;;;;;;;;;;4938414;29;1894;-65
2021/03/31 11:32:08;;;;;;;;;;;;;;;;;;4939214;29;1414;-64
2021/03/31 11:34:33;;;;;;;;;;;;;;;;;;4937494;29;1336;-64
2021/03/31 11:36:58;;;;;;;;;;;;;;;;;;4937735;29;905;-64
2021/03/31 11:39:24;;;;;;;;;;;;;;;;;;4939588;29;881;-65
2021/03/31 11:41:49;;;;;;;;;;;;;;;;;;4939687;29;1291;-64
2021/03/31 11:44:14;;;;;;;;;;;;;;;;;;4939122;29;873;-64
2021/03/31 11:46:40;;;;;;;;;;;;;;;;;;4939457;29;896;-65
2021/03/31 11:49:05;;;;;;;;;;;;;;;;;;4938275;29;1890;-65
2021/03/31 11:51:31;;;;;;;;;;;;;;;;;;4939437;29;1304;-65
2021/03/31 11:53:56;;;;;;;;;;;;;;;;;;4939492;29;814;-65
2021/03/31 11:56:21;;;;;;;;;;;;;;;;;;4939463;29;921;-65
2021/03/31 11:58:46;;;;;;;;;;;;;;;;;;4937849;29;806;-65
2021/03/31 12:01:12;;;;;;;;;;;;;;;;;;4937980;29;1570;-65
2021/03/31 12:03:37;;;;;;;;;;;;;;;;;;4939017;29;1001;-65
2021/03/31 12:06:02;;;;;;;;;;;;;;;;;;4938982;29;917;-65
2021/03/31 12:08:28;;;;;;;;;;;;;;;;;;4937841;29;1396;-65
2021/03/31 12:10:53;;;;;;;;;;;;;;;;;;4921856;29;1903;-65
2021/03/31 12:13:19;;;;;;;;;;;;;;;;;;4921797;29;1376;-65
2021/03/31 12:15:44;;;;;;;;;;;;;;;;;;4938821;29;1068;-65
2021/03/31 12:18:11;;;;;;;;;;;;;;;;;;4938919;29;885;-64
2021/03/31 12:20:36;;;;;;;;;;;;;;;;;;4937862;29;1687;-64
2021/03/31 12:23:01;;;;;;;;;;;;;;;;;;4937600;29;1329;-65
2021/03/31 12:25:27;;;;;;;;;;;;;;;;;;4938767;29;790;-64
2021/03/31 12:27:56;;;;;;;;;;;;;;;;;;4937385;29;1412;-65
2021/03/31 12:30:22;;;;;;;;;;;;;;;;;;4937269;29;1894;-65
2021/03/31 12:32:47;;;;;;;;;;;;;;;;;;4937402;29;1492;-66
2021/03/31 12:35:12;;;;;;;;;;;;;;;;;;4938416;29;976;-64
2021/03/31 12:37:39;;;;;;;;;;;;;;;;;;4938485;29;849;-65
2021/03/31 12:40:06;;;;;;;;;;;;;;;;;;4937219;29;803;-65
2021/03/31 12:42:31;;;;;;;;;;;;;;;;;;4938173;29;1382;-66
2021/03/31 12:44:56;;;;;;;;;;;;;;;;;;4937957;29;827;-66
2021/03/31 12:47:22;;;;;;;;;;;;;;;;;;4936678;29;827;-65
2021/03/31 12:49:49;;;;;;;;;;;;;;;;;;4938018;29;2323;-66
2021/03/31 12:52:18;;;;;;;;;;;;;;;;;;4936870;29;1366;-66
2021/03/31 12:54:54;;;;;;;;;;;;;;;;;;4936769;29;1233;-67
2021/03/31 12:57:21;;;;;;;;;;;;;;;;;;4937082;29;1285;-67
2021/03/31 12:59:46;;;;;;;;;;;;;;;;;;4938255;29;905;-68
2021/03/31 13:02:11;;;;;;;;;;;;;;;;;;4937722;29;1399;-68
2021/03/31 13:04:36;;;;;;;;;;;;;;;;;;4938106;29;892;-67
2021/03/31 13:07:03;;;;;;;;;;;;;;;;;;4938136;29;913;-67
2021/03/31 13:09:29;;;;;;;;;;;;;;;;;;4937886;29;1899;-67
2021/03/31 13:11:55;;;;;;;;;;;;;;;;;;4937800;29;1300;-68
2021/03/31 13:16:57;;;;;;;;;;;;;;;;;;4938056;29;880;-67
2021/03/31 13:25:15;;;;;;;;;;;;;;;;;;4932896;29;1335;-67
2021/03/31 13:33:05;;;;;;;;;;;;;;;;;;4937855;29;1374;-67
2021/03/31 13:39:22;;;;;;;;;;;;;;;;;;4936400;29;1163;-66
2021/03/31 13:41:11;;;;;;;;;;;;;;;;;;4928419;29;1297;-67
2021/03/31 13:43:37;;;;;;;;;;;;;;;;;;4936084;29;1488;-67
2021/03/31 13:46:02;;;;;;;;;;;;;;;;;;4937397;29;944;-67
2021/03/31 13:50:55;;;;;;;;;;;;;;;;;;4937546;29;1982;-68
2021/03/31 13:53:22;;;;;;;;;;;;;;;;;;4935768;29;1003;-67
2021/03/31 13:55:48;;;;;;;;;;;;;;;;;;4937523;29;846;-68
2021/03/31 13:58:13;;;;;;;;;;;;;;;;;;4936442;29;740;-67
2021/03/31 14:00:39;;;;;;;;;;;;;;;;;;4935670;29;1346;-68
2021/03/31 14:03:04;;;;;;;;;;;;;;;;;;4935765;29;1170;-68
2021/03/31 14:05:30;;;;;;;;;;;;;;;;;;4937308;29;858;-67
2021/03/31 14:07:56;;;;;;;;;;;;;;;;;;4936850;29;954;-68
2021/03/31 14:10:22;;;;;;;;;;;;;;;;;;4935930;29;1968;-68
2021/03/31 14:12:56;;;;;;;;;;;;;;;;;;4937345;29;1335;-67
2021/03/31 14:15:22;;;;;;;;;;;;;;;;;;4935942;29;1367;-68
2021/03/31 14:17:47;;;;;;;;;;;;;;;;;;4935786;29;1229;-68
2021/03/31 14:20:13;;;;;;;;;;;;;;;;;;4935898;29;1328;-68
2021/03/31 14:22:39;;;;;;;;;;;;;;;;;;4937064;29;1339;-68
2021/03/31 14:25:06;;;;;;;;;;;;;;;;;;4936960;29;886;-68
2021/03/31 14:27:33;;;;;;;;;;;;;;;;;;4937098;29;879;-69
2021/03/31 14:29:58;;;;;;;;;;;;;;;;;;4936863;29;1902;-68
2021/03/31 14:32:23;;;;;;;;;;;;;;;;;;4936995;29;1462;-68
2021/03/31 14:34:49;;;;;;;;;;;;;;;;;;4936881;29;810;-69
2021/03/31 14:37:14;;;;;;;;;;;;;;;;;;4937097;29;995;-69
2021/03/31 14:39:40;;;;;;;;;;;;;;;;;;4936832;29;901;-68
2021/03/31 14:42:06;;;;;;;;;;;;;;;;;;4936950;29;1311;-68
2021/03/31 14:44:32;;;;;;;;;;;;;;;;;;4936706;29;1150;-68
2021/03/31 14:46:57;;;;;;;;;;;;;;;;;;4935602;29;1444;-69
2021/03/31 14:49:26;;;;;;;;;;;;;;;;;;4935673;29;1970;-68
2021/03/31 14:59:44;;;;;;;;;;;;;;;;;;4937227;29;778;-68
2021/03/31 15:02:13;;;;;;;;;;;;;;;;;;4936626;29;1434;-67
2021/03/31 15:04:39;;;;;;;;;;;;;;;;;;4935275;29;934;-68
2021/03/31 15:07:04;;;;;;;;;;;;;;;;;;4936500;29;852;-68
2021/03/31 15:09:30;;;;;;;;;;;;;;;;;;4937442;29;1910;-68
2021/03/31 15:11:59;;;;;;;;;;;;;;;;;;4938765;29;1535;-68
2021/03/31 15:14:24;;;;;;;;;;;;;;;;;;4939863;29;833;-68
2021/03/31 15:16:49;;;;;;;;;;;;;;;;;;4938672;29;909;-68
2021/03/31 15:19:39;;;;;;;;;;;;;;;;;;4938711;29;1249;-68
2021/03/31 15:22:16;;;;;;;;;;;;;;;;;;4939671;29;1366;-68
2021/03/31 15:24:41;;;;;;;;;;;;;;;;;;4938547;29;1465;-68
2021/03/31 15:27:07;;;;;;;;;;;;;;;;;;4939781;29;1044;-68
2021/03/31 15:29:33;;;;;;;;;;;;;;;;;;4938577;29;1898;-68
2021/03/31 15:31:59;;;;;;;;;;;;;;;;;;4939710;29;1299;-68
2021/03/31 15:34:24;;;;;;;;;;;;;;;;;;4938108;29;1213;-68
2021/03/31 15:36:49;;;;;;;;;;;;;;;;;;4938424;29;1217;-68
2021/03/31 15:39:15;;;;;;;;;;;;;;;;;;4939699;29;928;-68
2021/03/31 15:41:42;;;;;;;;;;;;;;;;;;4938209;29;1373;-68
2021/03/31 15:44:10;;;;;;;;;;;;;;;;;;4937888;29;1203;-68
2021/03/31 15:46:38;;;;;;;;;;;;;;;;;;4939599;29;937;-67
2021/03/31 15:49:04;;;;;;;;;;;;;;;;;;4939538;29;2277;-67
2021/03/31 15:51:30;;;;;;;;;;;;;;;;;;4939567;29;1398;-68
2021/03/31 15:53:55;;;;;;;;;;;;;;;;;;4937749;29;1340;-68
2021/03/31 15:56:22;;;;;;;;;;;;;;;;;;4939273;29;890;-68
2021/03/31 15:58:47;;;;;;;;;;;;;;;;;;4939269;29;881;-68
2021/03/31 16:01:12;;;;;;;;;;;;;;;;;;4938087;29;1662;-68
2021/03/31 16:03:40;;;;;;;;;;;;;;;;;;4937704;29;1293;-68
2021/03/31 16:06:06;;;;;;;;;;;;;;;;;;4938985;29;830;-68
2021/03/31 16:08:32;;;;;;;;;;;;;;;;;;4938557;29;814;-68
2021/03/31 16:10:58;;;;;;;;;;;;;;;;;;4938672;29;1975;-68
2021/03/31 16:13:23;;;;;;;;;;;;;;;;;;4938636;29;953;-68
2021/03/31 16:15:48;;;;;;;;;;;;;;;;;;4937598;29;1547;-68
2021/03/31 16:18:14;;;;;;;;;;;;;;;;;;4938676;29;823;-68
2021/03/31 16:20:39;;;;;;;;;;;;;;;;;;4938252;29;1370;-68
2021/03/31 16:23:04;;;;;;;;;;;;;;;;;;4938241;29;786;-68
2021/03/31 16:25:30;;;;;;;;;;;;;;;;;;4938364;29;823;-68
2021/03/31 16:33:11;;;;;;;;;;;;;;;;;;4938325;29;809;-68
2021/03/31 16:35:37;;;;;;;;;;;;;;;;;;4938471;29;858;-68
2021/03/31 16:38:03;;;;;;;;;;;;;;;;;;4938263;29;893;-68
2021/03/31 16:40:28;;;;;;;;;;;;;;;;;;4937158;29;1284;-68
2021/03/31 16:42:54;;;;;;;;;;;;;;;;;;4937168;29;1390;-67
2021/03/31 16:45:19;;;;;;;;;;;;;;;;;;4938539;29;885;-68
2021/03/31 16:47:45;;;;;;;;;;;;;;;;;;4938127;29;881;-68
2021/03/31 16:50:11;;;;;;;;;;;;;;;;;;4936964;29;1871;-68
2021/03/31 16:52:37;;;;;;;;;;;;;;;;;;4937826;29;1421;-68
2021/03/31 16:55:02;;;;;;;;;;;;;;;;;;4936564;29;1400;-68
2021/03/31 16:57:27;;;;;;;;;;;;;;;;;;4937127;29;1134;-68
2021/03/31 16:59:52;;;;;;;;;;;;;;;;;;4937958;29;945;-68
2021/03/31 17:02:19;;;;;;;;;;;;;;;;;;4937608;29;1300;-68
2021/03/31 17:04:44;;;;;;;;;;;;;;;;;;4936709;29;1217;-69
2021/03/31 17:07:09;;;;;;;;;;;;;;;;;;4937132;29;1297;-68
2021/03/31 17:09:36;;;;;;;;;;;;;;;;;;4936837;29;1894;-68
2021/03/31 17:12:01;;;;;;;;;;;;;;;;;;4936479;29;1453;-68
2021/03/31 17:14:27;;;;;;;;;;;;;;;;;;4937883;29;806;-68
2021/03/31 17:16:52;;;;;;;;;;;;;;;;;;4937963;29;948;-68
2021/03/31 17:19:17;;;;;;;;;;;;;;;;;;4937911;29;1031;-66
2021/03/31 17:21:43;;;;;;;;;;;;;;;;;;4936472;29;1361;-66
2021/03/31 17:24:09;;;;;;;;;;;;;;;;;;4937359;29;1008;-67
2021/03/31 17:26:34;;;;;;;;;;;;;;;;;;4937796;29;819;-67
2021/03/31 17:29:00;;;;;;;;;;;;;;;;;;4937992;29;877;-67
2021/03/31 17:31:26;;;;;;;;;;;;;;;;;;4937527;29;1964;-66
2021/03/31 17:33:51;;;;;;;;;;;;;;;;;;4936388;29;873;-67
2021/03/31 17:36:16;;;;;;;;;;;;;;;;;;4937523;29;909;-67
2021/03/31 17:38:42;;;;;;;;;;;;;;;;;;4937576;29;980;-67
2021/03/31 17:41:07;;;;;;;;;;;;;;;;;;4937446;29;1303;-67
2021/03/31 17:43:32;;;;;;;;;;;;;;;;;;4936285;29;1177;-67
2021/03/31 17:45:58;;;;;;;;;;;;;;;;;;4937359;29;838;-67
2021/03/31 17:48:26;;;;;;;;;;;;;;;;;;4935981;29;1217;-67
2021/03/31 17:50:52;;;;;;;;;;;;;;;;;;4937168;29;1896;-67
2021/03/31 17:53:27;;;;;;;;;;;;;;;;;;4935942;29;897;-67
2021/03/31 17:55:53;;;;;;;;;;;;;;;;;;4937329;29;896;-67
2021/03/31 17:58:18;;;;;;;;;;;;;;;;;;4936248;29;957;-66
2021/03/31 18:00:44;;;;;;;;;;;;;;;;;;4936272;29;1477;-67
2021/03/31 18:03:10;;;;;;;;;;;;;;;;;;4935863;29;1237;-67
2021/03/31 18:05:35;;;;;;;;;;;;;;;;;;4937418;29;1089;-68
2021/03/31 18:08:00;;;;;;;;;;;;;;;;;;4937515;29;806;-66
2021/03/31 18:10:26;;;;;;;;;;;;;;;;;;4935826;29;1906;-68
2021/03/31 18:12:55;;;;;;;;;;;;;;;;;;4937279;29;1410;-66
2021/03/31 18:15:29;;;;;;;;;;;;;;;;;;4937023;29;885;-66
2021/03/31 18:17:54;;;;;;;;;;;;;;;;;;4937087;29;1043;-64
2021/03/31 18:20:20;;;;;;;;;;;;;;;;;;4937221;29;838;-67
2021/03/31 18:22:45;;;;;;;;;;;;;;;;;;4937047;29;1434;-65
2021/03/31 18:25:10;;;;;;;;;;;;;;;;;;4935655;29;826;-68
2021/03/31 18:27:36;;;;;;;;;;;;;;;;;;4935784;29;1008;-70
2021/03/31 18:30:01;;;;;;;;;;;;;;;;;;4935784;29;1973;-69
2021/03/31 18:32:27;;;;;;;;;;;;;;;;;;4936677;29;1429;-70
2021/03/31 18:34:53;;;;;;;;;;;;;;;;;;4936902;29;894;-71
2021/03/31 18:37:19;;;;;;;;;;;;;;;;;;4936822;29;898;-69
2021/03/31 18:39:56;;;;;;;;;;;;;;;;;;4936873;29;838;-68
2021/03/31 18:45:13;;;;;;;;;;;;;;;;;;4930568;29;1185;-68
2021/03/31 18:47:39;;;;;;;;;;;;;;;;;;4940433;29;807;-68
2021/03/31 18:50:05;;;;;;;;;;;;;;;;;;4940514;29;1891;-69
2021/03/31 18:52:30;;;;;;;;;;;;;;;;;;4940323;29;1370;-69
2021/03/31 18:54:57;;;;;;;;;;;;;;;;;;4940047;29;1000;-69
2021/03/31 18:57:23;;;;;;;;;;;;;;;;;;4939070;29;1407;-68
2021/03/31 18:59:48;;;;;;;;;;;;;;;;;;4940268;29;831;-69
2021/03/31 19:02:13;;;;;;;;;;;;;;;;;;4938914;29;1355;-70
2021/03/31 19:04:39;;;;;;;;;;;;;;;;;;4938844;29;1311;-69
2021/03/31 19:07:04;;;;;;;;;;;;;;;;;;4940321;29;901;-69
2021/03/31 19:12:13;;;;;;;;;;;;;;;;;;4940175;29;1324;-69
2021/03/31 19:14:39;;;;;;;;;;;;;;;;;;4938746;29;1177;-68
2021/03/31 19:17:04;;;;;;;;;;;;;;;;;;4940169;29;806;-69
2021/03/31 19:19:29;;;;;;;;;;;;;;;;;;4922891;29;1372;-70
2021/03/31 19:21:55;;;;;;;;;;;;;;;;;;4939719;29;1381;-69
2021/03/31 19:24:21;;;;;;;;;;;;;;;;;;4939756;29;857;-70
2021/03/31 19:26:46;;;;;;;;;;;;;;;;;;4939855;29;928;-69
2021/03/31 19:29:11;;;;;;;;;;;;;;;;;;4938583;29;1895;-69
2021/03/31 19:31:37;;;;;;;;;;;;;;;;;;4938487;29;1437;-68
2021/03/31 19:34:02;;;;;;;;;;;;;;;;;;4938169;29;1438;-70
2021/03/31 19:36:27;;;;;;;;;;;;;;;;;;4938464;29;1221;-70
2021/03/31 19:38:53;;;;;;;;;;;;;;;;;;4939575;29;786;-68
2021/03/31 19:41:18;;;;;;;;;;;;;;;;;;4939571;29;1303;-71
2021/03/31 19:43:45;;;;;;;;;;;;;;;;;;4939394;29;861;-70
2021/03/31 19:46:11;;;;;;;;;;;;;;;;;;4938382;29;1324;-70
2021/03/31 19:48:36;;;;;;;;;;;;;;;;;;4939421;29;960;-71
2021/03/31 19:51:03;;;;;;;;;;;;;;;;;;4938093;29;1895;-70
2021/03/31 19:53:31;;;;;;;;;;;;;;;;;;4939422;29;892;-70
2021/03/31 19:55:57;;;;;;;;;;;;;;;;;;4938187;29;909;-70
2021/03/31 19:58:24;;;;;;;;;;;;;;;;;;4938113;29;1221;-71
2021/03/31 20:00:49;;;;;;;;;;;;;;;;;;4937965;29;1287;-70
2021/03/31 20:03:15;;;;;;;;;;;;;;;;;;4937796;29;1469;-70
2021/03/31 20:05:40;;;;;;;;;;;;;;;;;;4939136;29;874;-70
2021/03/31 20:08:05;;;;;;;;;;;;;;;;;;4939164;29;886;-71
2021/03/31 20:10:31;;;;;;;;;;;;;;;;;;4937487;29;1971;-70
2021/03/31 20:12:56;;;;;;;;;;;;;;;;;;4937759;29;1414;-70
2021/03/31 20:15:21;;;;;;;;;;;;;;;;;;4938902;29;767;-70
2021/03/31 20:17:50;;;;;;;;;;;;;;;;;;4937429;29;1434;-67
2021/03/31 20:20:18;;;;;;;;;;;;;;;;;;4938965;29;897;-70
2021/03/31 20:22:43;;;;;;;;;;;;;;;;;;4938859;29;1416;-71
2021/03/31 20:25:10;;;;;;;;;;;;;;;;;;4937300;29;1561;-70
2021/03/31 20:27:36;;;;;;;;;;;;;;;;;;4937470;29;922;-70
2021/03/31 20:30:03;;;;;;;;;;;;;;;;;;4937454;29;1964;-72
2021/03/31 20:32:35;;;;;;;;;;;;;;;;;;4938537;29;1347;-70
2021/03/31 20:35:02;;;;;;;;;;;;;;;;;;4937157;29;1407;-69
2021/03/31 20:37:28;;;;;;;;;;;;;;;;;;4937250;29;1339;-68
2021/03/31 20:39:53;;;;;;;;;;;;;;;;;;4938763;29;887;-70
2021/03/31 20:42:19;;;;;;;;;;;;;;;;;;4938289;29;1417;-69
2021/03/31 20:44:44;;;;;;;;;;;;;;;;;;4938377;29;931;-69
2021/03/31 20:47:09;;;;;;;;;;;;;;;;;;4937086;29;1613;-70
2021/03/31 20:49:34;;;;;;;;;;;;;;;;;;4937217;29;1883;-70
2021/03/31 20:52:00;;;;;;;;;;;;;;;;;;4937122;29;1279;-70
2021/03/31 20:54:25;;;;;;;;;;;;;;;;;;4938183;29;902;-69
2021/03/31 20:56:50;;;;;;;;;;;;;;;;;;4938236;29;827;-69
2021/03/31 20:59:15;;;;;;;;;;;;;;;;;;4938404;29;826;-69
2021/03/31 21:01:44;;;;;;;;;;;;;;;;;;4937947;29;1338;-69
2021/03/31 21:04:10;;;;;;;;;;;;;;;;;;4937072;29;838;-69
2021/03/31 21:06:35;;;;;;;;;;;;;;;;;;4936829;29;1644;-69
2021/03/31 21:09:00;;;;;;;;;;;;;;;;;;4937829;29;845;-69
2021/03/31 21:11:26;;;;;;;;;;;;;;;;;;4936471;29;1919;-70
2021/03/31 21:13:51;;;;;;;;;;;;;;;;;;4937708;29;831;-70
2021/03/31 21:16:16;;;;;;;;;;;;;;;;;;4937805;29;811;-70
2021/03/31 21:18:41;;;;;;;;;;;;;;;;;;4936649;29;1202;-69
2021/03/31 21:21:07;;;;;;;;;;;;;;;;;;4937570;29;1259;-68
2021/03/31 21:23:32;;;;;;;;;;;;;;;;;;4936360;29;1196;-69
2021/03/31 21:25:57;;;;;;;;;;;;;;;;;;4936586;29;1475;-68
2021/03/31 21:28:23;;;;;;;;;;;;;;;;;;4937670;29;865;-68
2021/03/31 21:30:48;;;;;;;;;;;;;;;;;;4937435;29;1898;-69
2021/03/31 21:33:14;;;;;;;;;;;;;;;;;;4936537;29;1134;-68
2021/03/31 21:35:39;;;;;;;;;;;;;;;;;;4936238;29;1189;-67
2021/03/31 21:38:04;;;;;;;;;;;;;;;;;;4937724;29;817;-69
2021/03/31 21:40:29;;;;;;;;;;;;;;;;;;4937295;29;878;-68
2021/03/31 21:42:55;;;;;;;;;;;;;;;;;;4936460;29;1406;-68
2021/03/31 21:45:20;;;;;;;;;;;;;;;;;;4936107;29;806;-68
2021/03/31 21:47:45;;;;;;;;;;;;;;;;;;4936140;29;1206;-69
2021/03/31 21:50:11;;;;;;;;;;;;;;;;;;4937308;29;1962;-69
2021/03/31 21:52:36;;;;;;;;;;;;;;;;;;4935799;29;2228;-69
2021/03/31 21:55:01;;;;;;;;;;;;;;;;;;4937083;29;798;-68
2021/03/31 21:57:27;;;;;;;;;;;;;;;;;;4937307;29;889;-68
2021/03/31 21:59:52;;;;;;;;;;;;;;;;;;4935771;29;1415;-69
2021/03/31 22:02:18;;;;;;;;;;;;;;;;;;4935899;29;1327;-68
2021/03/31 22:04:43;;;;;;;;;;;;;;;;;;4937026;29;886;-68
2021/03/31 22:07:08;;;;;;;;;;;;;;;;;;4936109;29;842;-68
2021/03/31 22:09:35;;;;;;;;;;;;;;;;;;4935831;29;1899;-68
2021/03/31 22:12:00;;;;;;;;;;;;;;;;;;4937188;29;1315;-69
2021/03/31 22:14:25;;;;;;;;;;;;;;;;;;4936252;29;1178;-68
2021/03/31 22:16:51;;;;;;;;;;;;;;;;;;4937239;29;810;-68
2021/03/31 22:19:16;;;;;;;;;;;;;;;;;;4937640;29;850;-68
2021/03/31 22:21:41;;;;;;;;;;;;;;;;;;4940953;29;1280;-69
2021/03/31 22:24:07;;;;;;;;;;;;;;;;;;4940659;29;878;-68
2021/03/31 22:26:33;;;;;;;;;;;;;;;;;;4940670;29;853;-68
2021/03/31 22:28:58;;;;;;;;;;;;;;;;;;4939642;29;1328;-69
2021/03/31 22:31:24;;;;;;;;;;;;;;;;;;4940779;29;1963;-68
2021/03/31 22:33:53;;;;;;;;;;;;;;;;;;4940697;29;960;-69
2021/03/31 22:36:19;;;;;;;;;;;;;;;;;;4941060;29;847;-68
2021/03/31 22:38:48;;;;;;;;;;;;;;;;;;4940726;29;846;-68
2021/03/31 22:41:13;;;;;;;;;;;;;;;;;;4940576;29;1421;-69
2021/03/31 22:43:39;;;;;;;;;;;;;;;;;;4940510;29;873;-68
2021/03/31 22:46:04;;;;;;;;;;;;;;;;;;4940501;29;907;-68
2021/03/31 22:48:30;;;;;;;;;;;;;;;;;;4939413;29;886;-68
2021/03/31 22:50:58;;;;;;;;;;;;;;;;;;4940317;29;1965;-68
2021/03/31 22:53:30;;;;;;;;;;;;;;;;;;4940475;29;880;-67
2021/03/31 22:55:56;;;;;;;;;;;;;;;;;;4940314;29;814;-68
2021/03/31 22:58:23;;;;;;;;;;;;;;;;;;4940572;29;826;-68
